Time;durP1;ratioP1;P1;durP2;ratioP2;P2;SDS_P1;SDS_P2;PMS_P1;PMS_P2;Temp;Humidity;BMP_temperature;BMP_pressure;BME280_temperature;BME280_humidity;BME280_pressure;Samples;Min_cycle;Max_cycle;Signal;HPM_P1;HPM_P2
2023/10/01 00:00:27;;;;;;;7.40;6.67;;;;;;;8.48;100.00;97925.69;5063183;28;20209;-58
2023/10/01 00:02:56;;;;;;;7.93;7.23;;;;;;;8.43;100.00;97930.59;5059419;28;20306;-59
2023/10/01 00:05:25;;;;;;;7.80;7.17;;;;;;;8.38;100.00;97938.97;4960693;28;20225;-57
2023/10/01 00:07:53;;;;;;;7.17;6.57;;;;;;;8.40;100.00;97934.34;5056756;28;20301;-59
2023/10/01 00:10:23;;;;;;;8.57;6.57;;;;;;;8.43;100.00;97935.03;5061570;28;20217;-60
2023/10/01 00:12:53;;;;;;;7.30;6.70;;;;;;;8.44;100.00;97936.69;5072146;28;20299;-60
2023/10/01 00:15:22;;;;;;;8.33;7.50;;;;;;;8.46;100.00;97940.00;5061775;28;20206;-60
2023/10/01 00:17:50;;;;;;;7.97;6.97;;;;;;;8.44;100.00;97937.53;5066001;28;20245;-60
2023/10/01 00:20:20;;;;;;;7.43;6.73;;;;;;;8.45;100.00;97941.00;5073500;28;20205;-59
2023/10/01 00:22:50;;;;;;;7.60;6.90;;;;;;;8.34;100.00;97919.13;5065690;28;20278;-63
2023/10/01 00:25:18;;;;;;;9.17;7.23;;;;;;;8.33;100.00;97920.09;5047216;28;20506;-61
2023/10/01 00:27:48;;;;;;;8.10;7.30;;;;;;;8.35;100.00;97928.72;5050928;28;20225;-59
2023/10/01 00:30:16;;;;;;;8.23;7.40;;;;;;;8.34;100.00;97931.53;5066615;28;20217;-61
2023/10/01 00:32:44;;;;;;;7.97;7.23;;;;;;;8.31;100.00;97923.88;5064157;28;20276;-59
2023/10/01 00:35:12;;;;;;;6.90;6.30;;;;;;;8.25;100.00;97934.06;5033409;28;20202;-61
2023/10/01 00:37:40;;;;;;;7.30;6.70;;;;;;;8.19;100.00;97920.66;5002531;28;20234;-61
2023/10/01 00:40:10;;;;;;;7.33;6.50;;;;;;;8.21;100.00;97921.31;5065437;28;20650;-60
2023/10/01 00:42:39;;;;;;;7.63;6.93;;;;;;;8.18;100.00;97917.16;5059485;28;20199;-58
2023/10/01 00:45:13;;;;;;;7.93;7.20;;;;;;;8.19;100.00;97921.47;5067187;28;20234;-63
2023/10/01 00:47:42;;;;;;;8.03;7.43;;;;;;;8.18;100.00;97919.00;5070735;28;20212;-62
2023/10/01 00:50:12;;;;;;;8.10;7.40;;;;;;;8.15;100.00;97916.66;5072566;28;20274;-61
2023/10/01 00:52:41;;;;;;;7.70;6.97;;;;;;;8.15;100.00;97916.66;5068638;28;20203;-61
2023/10/01 00:55:10;;;;;;;8.27;7.10;;;;;;;8.13;100.00;97913.31;5071898;28;20313;-61
2023/10/01 00:57:39;;;;;;;7.73;6.97;;;;;;;8.11;100.00;97916.13;5070738;28;20308;-58
2023/10/01 01:00:15;;;;;;;7.20;6.60;;;;;;;8.08;100.00;97911.94;5068223;28;20262;-60
2023/10/01 01:02:56;;;;;;;10.03;7.37;;;;;;;8.05;100.00;97920.16;5036332;28;20454;-57
2023/10/01 01:05:34;;;;;;;7.83;6.80;;;;;;;8.07;100.00;97914.75;5071854;28;20788;-61
2023/10/01 01:08:20;;;;;;;6.83;6.13;;;;;;;8.05;100.00;97906.16;5074591;28;20220;-59
2023/10/01 01:10:50;;;;;;;7.40;6.73;;;;;;;7.96;100.00;97895.53;4967803;28;20538;-61
2023/10/01 01:13:17;;;;;;;7.20;6.50;;;;;;;7.99;100.00;97909.41;5071011;28;20251;-60
2023/10/01 01:15:51;;;;;;;7.67;6.83;;;;;;;7.94;100.00;97909.84;5068318;28;20235;-59
2023/10/01 01:18:21;;;;;;;7.40;6.17;;;;;;;7.89;100.00;97906.81;5074138;28;20843;-62
2023/10/01 01:20:57;;;;;;;6.77;6.10;;;;;;;7.81;100.00;97911.03;5063239;28;20202;-61
2023/10/01 01:23:30;;;;;;;7.33;6.63;;;;;;;7.72;100.00;97909.25;5071973;28;20194;-59
2023/10/01 01:25:59;;;;;;;6.67;6.07;;;;;;;7.66;100.00;97905.44;5065148;28;20202;-59
2023/10/01 01:28:30;;;;;;;7.10;6.50;;;;;;;7.64;100.00;97909.19;5066788;28;20214;-60
2023/10/01 01:30:59;;;;;;;6.97;6.37;;;;;;;7.62;100.00;97904.06;5012855;28;21011;-61
2023/10/01 01:33:31;;;;;;;7.60;6.87;;;;;;;7.59;100.00;97906.16;5072551;28;20194;-62
2023/10/01 01:36:00;;;;;;;6.50;5.97;;;;;;;7.56;100.00;97904.63;5071665;28;20199;-60
2023/10/01 01:38:31;;;;;;;7.07;6.37;;;;;;;7.59;100.00;97904.38;5077911;28;20313;-63
2023/10/01 01:41:00;;;;;;;7.03;6.40;;;;;;;7.60;100.00;97902.53;5006956;28;20947;-60
2023/10/01 01:43:30;;;;;;;8.17;6.47;;;;;;;7.53;100.00;97897.88;5078623;28;20268;-59
2023/10/01 01:46:00;;;;;;;6.93;6.33;;;;;;;7.53;100.00;97900.50;5072311;28;20270;-58
2023/10/01 01:48:31;;;;;;;6.30;5.80;;;;;;;7.52;100.00;97903.28;5072877;28;20709;-55
2023/10/01 01:51:00;;;;;;;6.97;6.37;;;;;;;7.53;100.00;97900.50;5070504;28;20194;-61
2023/10/01 01:53:34;;;;;;;6.53;6.00;;;;;;;7.54;100.00;97898.69;5075344;28;20202;-59
2023/10/01 01:56:08;;;;;;;5.73;5.23;;;;;;;7.58;100.00;97900.06;5074470;28;20774;-57
2023/10/01 01:58:37;;;;;;;6.33;5.73;;;;;;;7.52;100.00;97898.84;5068837;28;20226;-59
2023/10/01 02:01:23;;;;;;;6.23;5.73;;;;;;;7.54;100.00;97896.03;5060407;28;20224;-61
2023/10/01 02:03:52;;;;;;;7.10;6.40;;;;;;;7.57;100.00;97892.28;5076638;28;20296;-58
2023/10/01 02:06:27;;;;;;;8.00;6.03;;;;;;;7.56;100.00;97893.28;5020056;28;20885;-59
2023/10/01 02:08:58;;;;;;;6.33;5.83;;;;;;;7.52;100.00;97890.94;5066992;28;20245;-60
2023/10/01 02:11:29;;;;;;;6.33;5.73;;;;;;;7.49;100.00;97896.50;5069856;28;20205;-57
2023/10/01 02:13:59;;;;;;;7.20;5.93;;;;;;;7.48;100.00;97897.47;5079874;28;20202;-60
2023/10/01 02:16:40;;;;;;;6.93;6.30;;;;;;;7.48;100.00;97899.28;4977168;28;20198;-57
2023/10/01 02:19:14;;;;;;;5.97;5.53;;;;;;;7.43;100.00;97894.44;5075320;28;20304;-57
2023/10/01 02:21:43;;;;;;;6.93;6.37;;;;;;;7.48;100.00;97904.53;5064283;28;20279;-57
2023/10/01 02:24:19;;;;;;;6.17;5.67;;;;;;;7.48;100.00;97910.66;5075117;28;20314;-59
2023/10/01 02:26:47;;;;;;;5.90;5.40;;;;;;;7.43;100.00;97912.91;5071442;28;20297;-58
2023/10/01 02:29:16;;;;;;;6.20;5.77;;;;;;;7.44;100.00;97911.94;5075401;28;20364;-60
2023/10/01 02:31:48;;;;;;;6.23;5.63;;;;;;;7.44;100.00;97914.56;5071611;28;20530;-61
2023/10/01 02:34:17;;;;;;;6.60;5.90;;;;;;;7.32;100.00;97911.28;5077626;28;20295;-58
2023/10/01 02:36:46;;;;;;;7.03;5.43;;;;;;;7.26;100.00;97916.28;4996137;28;20221;-61
2023/10/01 02:39:27;;;;;;;7.50;6.53;;;;;;;7.14;100.00;97905.09;5039823;28;20332;-60
2023/10/01 02:42:09;;;;;;;6.57;6.07;;;;;;;7.20;100.00;97909.81;5074325;28;20319;-59
2023/10/01 02:44:40;;;;;;;6.87;6.17;;;;;;;7.20;100.00;97907.19;5071971;28;20217;-55
2023/10/01 02:47:17;;;;;;;6.50;5.90;;;;;;;7.14;100.00;97905.09;4994189;28;20707;-61
2023/10/01 02:49:49;;;;;;;6.77;6.03;;;;;;;7.14;100.00;97902.47;5073365;28;20225;-59
2023/10/01 02:52:18;;;;;;;7.40;6.60;;;;;;;7.13;100.00;97898.16;5071354;28;20477;-59
2023/10/01 02:54:47;;;;;;;6.87;6.20;;;;;;;7.04;100.00;97900.69;5072906;28;20305;-60
2023/10/01 02:57:23;;;;;;;6.57;5.97;;;;;;;6.98;100.00;97898.66;5073450;28;20221;-59
2023/10/01 03:00:20;;;;;;;5.70;5.10;;;;;;;7.04;100.00;97899.88;5073849;28;20704;-59
2023/10/01 03:02:51;;;;;;;4.57;4.27;;;;;;;7.05;100.00;97904.19;5068117;28;20214;-59
2023/10/01 03:05:26;;;;;;;4.53;4.23;;;;;;;7.00;100.00;97895.84;5077226;28;20203;-59
2023/10/01 03:07:54;;;;;;;5.10;4.70;;;;;;;7.00;100.00;97899.31;5022692;28;20225;-56
2023/10/01 03:10:26;;;;;;;5.13;4.73;;;;;;;6.98;100.00;97898.66;5075930;28;20387;-57
2023/10/01 03:12:55;;;;;;;6.10;5.50;;;;;;;6.94;100.00;97902.53;5066563;28;20203;-59
2023/10/01 03:15:27;;;;;;;6.27;5.67;;;;;;;6.94;100.00;97899.91;5074721;28;20202;-58
2023/10/01 03:17:56;;;;;;;6.43;5.83;;;;;;;6.96;100.00;97903.22;5068098;28;20827;-59
2023/10/01 03:23:24;;;;;;;6.13;5.63;;;;;;;7.00;100.00;97907.22;4967925;28;20233;-58
2023/10/01 03:26:01;;;;;;;5.60;5.10;;;;;;;6.95;100.00;97907.66;5072161;28;20217;-61
2023/10/01 03:28:33;;;;;;;5.47;5.10;;;;;;;6.95;100.00;97902.38;5067652;28;20221;-57
2023/10/01 03:31:07;;;;;;;5.83;5.33;;;;;;;6.93;100.00;97906.16;5071821;28;20228;-56
2023/10/01 03:33:38;;;;;;;6.13;5.63;;;;;;;6.95;100.00;97909.47;5070569;28;20625;-59
2023/10/01 03:36:10;;;;;;;6.03;5.50;;;;;;;6.91;100.00;97905.47;5073018;28;20198;-57
2023/10/01 03:38:38;;;;;;;5.10;4.70;;;;;;;6.93;100.00;97899.06;5021854;28;20303;-55
2023/10/01 03:41:10;;;;;;;10.20;5.83;;;;;;;6.95;100.00;97912.91;5075466;28;20198;-56
2023/10/01 03:43:38;;;;;;;4.87;4.57;;;;;;;6.94;100.00;97902.53;5070344;28;20194;-57
2023/10/01 03:46:13;;;;;;;5.77;5.33;;;;;;;6.92;100.00;97909.75;5059013;28;20294;-59
2023/10/01 03:49:03;;;;;;;4.90;4.60;;;;;;;6.95;100.00;97898.94;5000165;28;21170;-60
2023/10/01 03:54:19;;;;;;;5.70;5.30;;;;;;;7.02;100.00;97893.94;4968408;28;20469;-58
2023/10/01 03:56:56;;;;;;;4.50;4.20;;;;;;;7.03;100.00;97888.50;5069286;28;21070;-60
2023/10/01 03:59:27;;;;;;;4.87;4.57;;;;;;;6.92;100.00;97888.69;5071496;28;20228;-58
2023/10/01 04:02:02;;;;;;;5.80;5.40;;;;;;;6.95;100.00;97893.66;5073749;28;20416;-59
2023/10/01 04:04:32;;;;;;;5.23;4.83;;;;;;;6.88;100.00;97895.22;5028035;28;20667;-59
2023/10/01 04:07:09;;;;;;;5.40;5.00;;;;;;;6.81;100.00;97903.66;5064617;28;20199;-56
2023/10/01 04:09:46;;;;;;;5.30;5.00;;;;;;;6.83;100.00;97907.97;5019551;28;20229;-60
2023/10/01 04:12:20;;;;;;;5.10;4.80;;;;;;;6.83;100.00;97910.63;5075423;28;20233;-63
2023/10/01 04:14:49;;;;;;;5.50;5.10;;;;;;;6.78;100.00;97901.31;5062327;28;20202;-61
2023/10/01 04:17:18;;;;;;;4.70;4.40;;;;;;;6.79;100.00;97892.44;5067081;28;20285;-58
2023/10/01 04:19:49;;;;;;;6.23;5.67;;;;;;;6.79;100.00;97887.16;5071205;28;21097;-58
2023/10/01 04:22:21;;;;;;;6.00;5.50;;;;;;;6.76;100.00;97882.19;5069395;28;20652;-60
2023/10/01 04:25:00;;;;;;;7.17;6.10;;;;;;;6.84;100.00;97881.47;4968771;28;20236;-61
2023/10/01 04:27:34;;;;;;;6.80;6.20;;;;;;;6.88;100.00;97888.13;5070531;28;20664;-63
2023/10/01 04:30:08;;;;;;;7.20;5.90;;;;;;;6.89;100.00;97886.34;5062153;28;20217;-58
2023/10/01 04:32:36;;;;;;;7.30;6.60;;;;;;;6.83;100.00;97887.72;5072880;28;20279;-58
2023/10/01 04:35:14;;;;;;;6.03;5.60;;;;;;;6.82;100.00;97875.53;5069079;28;20202;-59
2023/10/01 04:37:48;;;;;;;6.57;5.90;;;;;;;6.80;100.00;97878.28;5067749;28;20326;-56
2023/10/01 04:40:39;;;;;;;5.90;5.40;;;;;;;6.81;100.00;97879.13;4969619;28;20222;-60
2023/10/01 04:43:16;;;;;;;7.33;6.70;;;;;;;6.83;100.00;97890.38;5072332;28;20832;-58
2023/10/01 04:45:44;;;;;;;8.23;7.43;;;;;;;6.76;100.00;97884.00;5074783;28;20937;-59
2023/10/01 04:48:16;;;;;;;7.60;6.80;;;;;;;6.86;100.00;97887.44;5070707;28;20287;-56
2023/10/01 04:50:46;;;;;;;7.93;7.07;;;;;;;6.84;100.00;97889.38;5073333;28;20206;-57
2023/10/01 04:53:14;;;;;;;7.43;6.83;;;;;;;6.90;100.00;97890.63;5065394;28;20238;-61
2023/10/01 04:55:42;;;;;;;7.57;6.87;;;;;;;6.97;100.00;97893.50;4964014;28;21376;-59
2023/10/01 04:58:14;;;;;;;8.20;7.40;;;;;;;6.91;100.00;97887.84;5073632;28;20771;-59
2023/10/01 05:00:45;;;;;;;7.20;6.07;;;;;;;6.94;100.00;97882.28;5069297;28;20455;-61
2023/10/01 05:03:15;;;;;;;6.27;5.77;;;;;;;6.77;100.00;97894.38;5064171;28;20199;-61
2023/10/01 05:05:44;;;;;;;6.80;6.13;;;;;;;6.82;100.00;97883.44;5064525;28;20590;-60
2023/10/01 05:08:13;;;;;;;7.37;6.53;;;;;;;6.87;100.00;97890.91;5074953;28;20215;-59
2023/10/01 05:10:51;;;;;;;6.37;5.73;;;;;;;6.89;100.00;97900.31;5020330;28;20195;-60
2023/10/01 05:13:22;;;;;;;6.57;6.00;;;;;;;6.96;100.00;97903.22;5076733;28;20206;-63
2023/10/01 05:15:52;;;;;;;6.93;6.23;;;;;;;6.95;100.00;97905.00;5072290;28;20203;-64
2023/10/01 05:18:21;;;;;;;7.13;6.43;;;;;;;6.94;100.00;97900.72;5075310;28;20263;-60
2023/10/01 05:20:49;;;;;;;6.70;6.10;;;;;;;6.89;100.00;97889.78;5070671;28;20578;-59
2023/10/01 05:23:17;;;;;;;8.10;6.73;;;;;;;7.09;100.00;97910.81;5076083;28;20704;-58
2023/10/01 05:25:46;;;;;;;7.27;6.67;;;;;;;7.09;100.00;97906.38;4959687;28;21638;-60
2023/10/01 05:28:31;;;;;;;6.00;5.60;;;;;;;7.12;100.00;97912.31;5076046;28;20272;-57
2023/10/01 05:31:01;;;;;;;7.33;6.43;;;;;;;7.10;100.00;97920.38;5071981;28;20678;-59
2023/10/01 05:33:28;;;;;;;6.23;5.63;;;;;;;7.10;100.00;97921.19;5078914;28;20202;-57
2023/10/01 05:35:59;;;;;;;7.27;6.67;;;;;;;7.07;100.00;97923.31;5075029;28;20283;-60
2023/10/01 05:38:27;;;;;;;7.53;6.63;;;;;;;7.10;100.00;97917.75;5074479;28;20309;-62
2023/10/01 05:40:56;;;;;;;7.50;6.80;;;;;;;7.14;100.00;97921.75;5019395;28;20700;-61
2023/10/01 05:43:27;;;;;;;7.63;6.93;;;;;;;7.23;100.00;97923.53;5075098;28;20661;-59
2023/10/01 05:46:01;;;;;;;8.93;8.03;;;;;;;7.24;100.00;97925.19;5072986;28;20199;-59
2023/10/01 05:48:32;;;;;;;8.80;8.00;;;;;;;7.26;100.00;97924.19;5075329;28;20230;-62
2023/10/01 05:51:00;;;;;;;6.93;6.33;;;;;;;7.31;100.00;97928.06;5072983;28;20201;-58
2023/10/01 05:53:30;;;;;;;7.93;7.23;;;;;;;7.42;100.00;97937.63;5047257;28;20207;-62
2023/10/01 05:56:06;;;;;;;7.63;6.93;;;;;;;7.51;100.00;97930.63;5050465;28;20283;-61
2023/10/01 05:58:34;;;;;;;8.03;7.30;;;;;;;7.55;100.00;97931.16;5023737;28;20708;-61
2023/10/01 06:03:48;;;;;;;8.10;6.93;;;;;;;7.68;100.00;97921.09;5023181;28;20771;-63
2023/10/01 06:06:24;;;;;;;7.33;6.63;;;;;;;7.81;100.00;97936.56;5074827;28;20245;-60
2023/10/01 06:08:58;;;;;;;7.20;6.60;;;;;;;7.82;100.00;97940.88;5031321;28;20737;-60
2023/10/01 06:11:39;;;;;;;6.33;5.83;;;;;;;7.86;100.00;97946.69;5075028;28;20183;-60
2023/10/01 06:14:08;;;;;;;7.40;6.73;;;;;;;7.94;100.00;97949.41;5022268;28;21189;-61
2023/10/01 06:16:37;;;;;;;7.00;6.40;;;;;;;8.00;100.00;97948.81;5078879;28;20238;-61
2023/10/01 06:19:11;;;;;;;7.50;6.83;;;;;;;8.01;100.00;97955.75;5020679;28;21409;-61
2023/10/01 06:21:41;;;;;;;7.53;6.93;;;;;;;8.01;100.00;97955.75;5068814;28;20312;-63
2023/10/01 06:24:10;;;;;;;6.73;6.13;;;;;;;8.06;100.00;97958.78;5071569;28;20190;-57
2023/10/01 06:26:42;;;;;;;13.73;7.43;;;;;;;8.02;100.00;97956.59;5077026;28;20303;-59
2023/10/01 06:29:11;;;;;;;6.00;5.60;;;;;;;8.18;100.00;97963.88;4969587;28;20791;-60
2023/10/01 06:31:52;;;;;;;7.80;7.10;;;;;;;8.23;100.00;97964.25;5079011;28;20252;-58
2023/10/01 06:34:23;;;;;;;7.97;6.67;;;;;;;8.38;100.00;97959.28;5069848;28;20273;-61
2023/10/01 06:36:56;;;;;;;6.20;5.70;;;;;;;8.49;100.00;97964.34;5076779;28;20278;-62
2023/10/01 06:39:24;;;;;;;6.00;5.60;;;;;;;8.81;100.00;97972.69;5078035;28;20246;-60
2023/10/01 06:41:53;;;;;;;5.90;5.40;;;;;;;8.87;100.00;97974.72;5077474;28;20219;-61
2023/10/01 06:44:21;;;;;;;9.83;6.10;;;;;;;9.06;100.00;97981.63;5020853;28;20641;-60
2023/10/01 06:46:50;;;;;;;5.33;5.03;;;;;;;9.14;100.00;97970.28;5079788;28;20221;-57
2023/10/01 06:49:19;;;;;;;9.10;5.37;;;;;;;9.25;100.00;97967.38;5073530;28;21555;-60
2023/10/01 06:51:50;;;;;;;7.13;6.40;;;;;;;9.24;100.00;97967.53;5075069;28;20209;-61
2023/10/01 06:54:18;;;;;;;5.60;4.93;;;;;;;9.12;100.00;97969.63;5039298;28;20216;-58
2023/10/01 06:56:47;;;;;;;8.67;6.30;;;;;;;9.30;100.00;97968.75;5075557;28;20207;-61
2023/10/01 06:59:17;;;;;;;5.97;5.57;;;;;;;9.41;100.00;97966.63;5074346;28;20222;-62
2023/10/01 07:01:49;;;;;;;6.60;4.97;;;;;;;9.43;100.00;97955.06;5066386;28;20226;-60
2023/10/01 07:04:19;;;;;;;4.90;4.60;;;;;;;9.51;100.00;97971.00;4998642;28;20208;-59
2023/10/01 07:06:50;;;;;;;6.00;5.60;;;;;;;9.59;100.00;97963.09;5068848;28;20213;-62
2023/10/01 07:09:27;;;;;;;5.43;5.03;;;;;;;9.79;100.00;97968.97;5035128;28;20238;-60
2023/10/01 07:11:57;;;;;;;5.20;4.90;;;;;;;9.75;100.00;97972.09;5074228;28;20203;-62
2023/10/01 07:14:38;;;;;;;5.67;5.27;;;;;;;9.72;100.00;97967.97;5071834;28;20216;-62
2023/10/01 07:17:08;;;;;;;6.27;5.83;;;;;;;9.78;100.00;97962.03;5046236;28;20205;-60
2023/10/01 07:19:36;;;;;;;5.57;5.17;;;;;;;9.83;100.00;97961.53;5058452;28;20284;-59
2023/10/01 07:22:07;;;;;;;5.83;5.43;;;;;;;9.93;100.00;97969.34;5068776;28;20222;-64
2023/10/01 07:24:38;;;;;;;5.67;5.27;;;;;;;10.18;100.00;97962.28;5072277;28;20198;-59
2023/10/01 07:27:06;;;;;;;6.43;5.90;;;;;;;10.45;100.00;97968.34;5070186;28;20751;-62
2023/10/01 07:29:35;;;;;;;5.70;5.30;;;;;;;10.65;100.00;97963.56;5070345;28;20305;-59
2023/10/01 07:32:07;;;;;;;5.80;5.30;;;;;;;10.76;100.00;97966.84;5068315;28;20218;-60
2023/10/01 07:34:35;;;;;;;6.23;5.83;;;;;;;10.78;100.00;97965.72;5076532;28;20703;-61
2023/10/01 07:37:05;;;;;;;5.57;5.20;;;;;;;10.81;100.00;97951.31;5028098;28;21434;-60
2023/10/01 07:39:38;;;;;;;6.40;6.00;;;;;;;11.06;100.00;97953.91;5029315;28;20317;-56
2023/10/01 07:42:10;;;;;;;6.60;6.10;;;;;;;10.99;100.00;97956.44;5069582;28;20222;-59
2023/10/01 07:44:38;;;;;;;6.57;6.07;;;;;;;11.37;100.00;97955.84;5074098;28;20338;-61
2023/10/01 07:47:06;;;;;;;6.07;5.57;;;;;;;11.50;100.00;97956.13;5048922;28;20254;-62
2023/10/01 07:49:50;;;;;;;6.13;5.63;;;;;;;11.43;100.00;97957.81;5058105;28;20690;-58
2023/10/01 07:52:21;;;;;;;6.37;5.87;;;;;;;11.63;100.00;97960.09;5022955;28;20551;-60
2023/10/01 07:54:50;;;;;;;7.17;6.57;;;;;;;11.60;100.00;97960.44;5069488;28;20198;-61
2023/10/01 07:57:24;;;;;;;6.87;6.27;;;;;;;11.66;100.00;97965.88;5015760;28;20795;-60
2023/10/01 07:59:53;;;;;;;14.23;13.10;;;;;;;11.91;100.00;97967.59;5071499;28;20234;-62
2023/10/01 08:02:21;;;;;;;6.43;5.97;;;;;;;11.79;100.00;97965.31;5022269;28;20305;-59
2023/10/01 08:04:58;;;;;;;6.60;6.10;;;;;;;11.95;100.00;97972.38;5073278;28;20202;-62
2023/10/01 08:07:39;;;;;;;7.50;6.90;;;;;;;12.15;100.00;97966.69;5068517;28;20201;-58
2023/10/01 08:10:18;;;;;;;6.83;6.27;;;;;;;12.28;100.00;97968.75;5034746;28;20566;-59
2023/10/01 08:15:38;;;;;;;7.10;6.50;;;;;;;12.77;100.00;97964.09;5072147;28;20248;-59
2023/10/01 08:21:15;;;;;;;8.23;7.53;;;;;;;13.07;100.00;97964.16;4978153;28;20223;-58
2023/10/01 08:23:45;;;;;;;7.90;7.30;;;;;;;13.08;100.00;97965.84;5068420;28;20209;-59
2023/10/01 08:29:00;;;;;;;6.93;6.37;;;;;;;13.45;100.00;97969.50;5073113;28;20471;-59
2023/10/01 08:32:07;;;;;;;7.30;6.80;;;;;;;13.71;100.00;97968.19;5051100;28;21361;-59
2023/10/01 08:35:01;;;;;;;7.30;6.70;;;;;;;13.83;100.00;97971.19;5075963;28;20226;-55
2023/10/01 08:37:22;;;;;;;7.43;6.83;;;;;;;13.65;100.00;97969.75;5020309;28;20259;-59
2023/10/01 08:39:53;;;;;;;7.83;7.23;;;;;;;13.71;100.00;97958.38;5070435;28;20317;-59
2023/10/01 08:42:28;;;;;;;8.77;7.93;;;;;;;14.06;100.00;97954.28;5054676;28;20283;-60
2023/10/01 08:45:03;;;;;;;7.63;6.80;;;;;;;14.30;100.00;97967.25;5002766;28;20213;-61
2023/10/01 08:47:31;;;;;;;7.87;7.17;;;;;;;14.11;100.00;97962.53;5072984;28;20596;-60
2023/10/01 08:50:17;;;;;;;8.27;7.47;;;;;;;14.15;100.00;97961.13;5069539;28;20210;-61
2023/10/01 08:52:55;;;;;;;6.97;6.37;;;;;;;14.48;100.00;97969.47;5048339;28;20294;-61
2023/10/01 08:55:24;;;;;;;6.90;6.40;;;;;;;14.55;100.00;97963.38;5072761;28;20283;-61
2023/10/01 08:57:54;;;;;;;7.27;6.63;;;;;;;14.71;100.00;97965.84;5064917;28;21939;-59
2023/10/01 09:00:24;;;;;;;10.03;7.63;;;;;;;14.77;100.00;97964.22;5072531;28;20689;-58
2023/10/01 09:02:55;;;;;;;7.77;7.17;;;;;;;15.04;100.00;97948.44;5023972;28;21063;-59
2023/10/01 09:05:26;;;;;;;8.17;7.30;;;;;;;15.08;100.00;97962.25;5072336;28;20708;-59
2023/10/01 09:10:39;;;;;;;8.07;7.37;;;;;;;15.17;100.00;97953.06;5080806;28;20701;-58
2023/10/01 09:13:13;;;;;;;7.83;7.13;;;;;;;15.35;100.00;97963.25;5067237;28;20198;-57
2023/10/01 09:15:43;;;;;;;9.20;7.23;;;;;;;15.23;100.00;97954.94;5081134;28;20285;-61
2023/10/01 09:18:11;;;;;;;7.80;7.03;;;;;;;15.10;100.00;97962.88;4964701;28;26420;-60
2023/10/01 09:20:42;;;;;;;8.23;7.37;;;;;;;15.22;100.00;97961.31;5075613;28;20287;-59
2023/10/01 09:23:09;;;;;;;7.23;6.63;;;;;;;15.71;100.00;97954.19;5073836;28;20327;-60
2023/10/01 09:25:41;;;;;;;7.10;6.50;;;;;;;15.88;100.00;97953.88;5076873;28;20313;-55
2023/10/01 09:28:29;;;;;;;7.60;6.90;;;;;;;16.19;100.00;97955.22;5032997;28;20245;-61
2023/10/01 09:31:01;;;;;;;8.97;7.10;;;;;;;15.99;100.00;97955.16;5093942;28;20199;-61
2023/10/01 09:33:32;;;;;;;7.97;7.27;;;;;;;16.14;100.00;97950.50;5074849;28;20317;-60
2023/10/01 09:36:00;;;;;;;7.43;6.73;;;;;;;16.20;100.00;97955.03;5084242;28;20202;-58
2023/10/01 09:38:28;;;;;;;8.50;7.20;;;;;;;16.29;100.00;97955.69;5077525;28;20222;-59
2023/10/01 09:40:56;;;;;;;7.53;6.83;;;;;;;16.56;100.00;97954.91;5076851;28;20209;-62
2023/10/01 09:43:27;;;;;;;8.37;7.17;;;;;;;16.64;100.00;97944.00;5023832;28;20345;-62
2023/10/01 09:45:59;;;;;;;8.23;7.43;;;;;;;16.72;100.00;97946.47;5074409;28;20385;-59
2023/10/01 09:48:33;;;;;;;7.60;7.00;;;;;;;16.70;100.00;97945.88;4967776;28;20238;-61
2023/10/01 09:51:08;;;;;;;7.60;6.93;;;;;;;16.88;100.00;97934.56;5004520;28;20219;-62
2023/10/01 09:53:48;;;;;;;7.60;6.90;;;;;;;17.01;100.00;97930.25;5067240;28;20279;-61
2023/10/01 09:56:26;;;;;;;8.77;7.87;;;;;;;17.13;100.00;97942.00;5063415;28;20265;-63
2023/10/01 09:59:03;;;;;;;8.40;6.87;;;;;;;17.01;100.00;97947.13;5069385;28;20249;-60
2023/10/01 10:01:34;;;;;;;7.80;7.03;;;;;;;17.35;100.00;97941.72;5024677;28;20229;-61
2023/10/01 10:04:04;;;;;;;7.83;6.97;;;;;;;17.42;100.00;97944.41;5073219;28;20198;-61
2023/10/01 10:06:32;;;;;;;8.60;6.17;;;;;;;17.36;100.00;97938.03;5064730;28;20333;-58
2023/10/01 10:09:06;;;;;;;7.00;6.30;;;;;;;17.40;100.00;97923.19;5065629;28;20478;-62
2023/10/01 10:11:37;;;;;;;8.27;6.57;;;;;;;17.65;100.00;97942.09;5072817;28;20208;-59
2023/10/01 10:14:44;;;;;;;7.37;6.60;;;;;;;17.57;100.00;97936.94;5068170;28;20741;-62
2023/10/01 10:17:25;;;;;;;6.57;5.97;;;;;;;17.45;100.00;97934.09;5055954;28;20206;-62
2023/10/01 10:20:15;;;;;;;7.30;6.10;;;;;;;17.62;100.00;97926.44;5066872;28;20645;-61
2023/10/01 10:23:13;;;;;;;8.20;6.83;;;;;;;17.61;100.00;97926.63;5036436;28;20508;-62
2023/10/01 10:25:41;;;;;;;6.90;6.20;;;;;;;17.57;100.00;97933.44;5075026;28;20238;-63
2023/10/01 10:28:09;;;;;;;9.77;7.27;;;;;;;17.80;100.00;97919.56;5079930;28;20221;-59
2023/10/01 10:30:41;;;;;;;8.07;6.37;;;;;;;17.78;100.00;97921.63;5028669;28;20219;-57
2023/10/01 10:33:40;;;;;;;9.60;7.37;;;;;;;17.59;100.00;97912.63;5076908;28;20236;-60
2023/10/01 10:36:35;;;;;;;8.57;7.07;;;;;;;17.69;100.00;97912.19;5071678;28;20203;-59
2023/10/01 10:39:15;;;;;;;7.20;6.50;;;;;;;17.89;100.00;97917.47;5078105;28;20226;-58
2023/10/01 10:42:28;;;;;;;6.53;5.67;;;;;;;18.08;100.00;97913.88;5070994;28;20293;-59
2023/10/01 10:45:23;;;;;;;8.13;6.80;;;;;;;18.16;100.00;97910.13;5073543;28;20290;-62
2023/10/01 10:47:58;;;;;;;7.83;6.43;;;;;;;18.30;100.00;97910.03;5076984;28;20329;-57
2023/10/01 10:50:44;;;;;;;9.20;6.20;;;;;;;18.20;100.00;97903.28;5072958;28;20402;-64
2023/10/01 10:53:18;;;;;;;7.27;6.57;;;;;;;18.40;100.00;97909.56;5076149;28;20539;-59
2023/10/01 10:55:53;;;;;;;7.17;6.20;;;;;;;18.42;100.00;97905.66;4966291;28;20730;-60
2023/10/01 10:58:22;;;;;;;5.73;5.07;;;;;;;18.59;100.00;97905.94;5077653;28;20225;-59
2023/10/01 11:00:50;;;;;;;8.20;6.60;;;;;;;18.59;100.00;97897.06;5029874;28;20206;-59
2023/10/01 11:03:38;;;;;;;10.93;6.77;;;;;;;18.65;100.00;97888.13;5073112;28;20253;-61
2023/10/01 11:06:21;;;;;;;7.73;6.90;;;;;;;18.66;100.00;97884.41;5073161;28;20202;-60
2023/10/01 11:08:53;;;;;;;7.00;6.17;;;;;;;18.95;100.00;97879.41;5077646;28;20252;-57
2023/10/01 11:11:28;;;;;;;7.43;6.70;;;;;;;18.93;100.00;97876.91;5074169;28;20455;-59
2023/10/01 11:14:16;;;;;;;6.77;6.07;;;;;;;18.95;100.00;97879.41;5076633;28;20723;-61
2023/10/01 11:16:46;;;;;;;9.60;6.47;;;;;;;19.03;100.00;97873.78;5072108;28;20259;-60
2023/10/01 11:19:16;;;;;;;8.53;6.60;;;;;;;19.08;100.00;97870.44;5079067;28;20227;-62
2023/10/01 11:21:58;;;;;;;6.83;5.90;;;;;;;19.22;100.00;97865.75;5069366;28;20230;-60
2023/10/01 11:24:30;;;;;;;9.17;6.33;;;;;;;19.17;100.00;97868.28;5075219;28;20190;-58
2023/10/01 11:27:18;;;;;;;6.97;6.03;;;;;;;19.20;100.00;97865.16;4972644;28;20234;-61
2023/10/01 11:30:12;;;;;;;9.80;7.20;;;;;;;19.16;100.00;97867.44;5078175;28;20258;-58
2023/10/01 11:33:01;;;;;;;7.00;6.30;;;;;;;19.30;100.00;97868.13;5070677;28;20202;-60
2023/10/01 11:35:32;;;;;;;8.43;6.70;;;;;;;19.37;100.00;97865.38;5032666;28;20886;-60
2023/10/01 11:38:08;;;;;;;7.10;6.37;;;;;;;19.37;100.00;97868.88;5077903;28;20565;-60
2023/10/01 11:43:32;;;;;;;7.63;6.33;;;;;;;19.52;100.00;97862.31;5074570;28;20233;-62
2023/10/01 11:46:19;;;;;;;11.77;10.43;;;;;;;19.58;100.00;97855.19;5059207;28;20670;-59
2023/10/01 11:48:59;;;;;;;10.47;9.37;;;;;;;19.64;100.00;97860.50;5064693;28;20267;-59
2023/10/01 11:51:43;;;;;;;9.00;7.33;;;;;;;19.55;100.00;97853.78;5074465;28;20209;-59
2023/10/01 11:54:13;;;;;;;8.80;7.10;;;;;;;19.50;100.00;97848.25;5070174;28;20195;-59
2023/10/01 11:56:43;;;;;;;9.30;6.77;;;;;;;19.58;100.00;97841.75;4964981;28;20211;-61
2023/10/01 11:59:17;;;;;;;7.47;6.47;;;;;;;19.74;100.00;97843.84;5078078;28;20311;-61
2023/10/01 12:01:50;;;;;;;7.00;6.17;;;;;;;19.78;100.00;97836.13;5074091;28;20213;-63
2023/10/01 12:04:24;;;;;;;7.33;6.47;;;;;;;19.99;100.00;97832.13;5078128;28;20280;-59
2023/10/01 12:06:54;;;;;;;8.00;6.57;;;;;;;19.94;100.00;97830.16;5071118;28;20210;-60
2023/10/01 12:09:24;;;;;;;7.80;6.57;;;;;;;20.10;100.00;97834.06;5076625;28;20245;-60
2023/10/01 12:12:06;;;;;;;7.93;6.43;;;;;;;20.21;100.00;97829.72;5026033;28;21344;-57
2023/10/01 12:14:52;;;;;;;9.73;7.37;;;;;;;20.20;100.00;97827.28;5073749;28;20207;-57
2023/10/01 12:17:23;;;;;;;8.37;6.63;;;;;;;20.39;100.00;97825.34;5073051;28;20209;-60
2023/10/01 12:19:57;;;;;;;8.83;6.73;;;;;;;20.52;100.00;97819.72;5071288;28;20229;-60